Thunder radar more information blitzortung!


Löydät sääaseman tiedot myös:

European Weather Network

Finland Weather Exchange

Weather Underground

AWEKAS



Weather Underground säähistoriasivu

Päivittäin yhteenveto Huhtikuu 10, 2017 Yksiköt:  Metriset    Englantilaiset   Molemmat
« Edellinen Päivä
Seuraava Päivä »
Päivittäin Viikoittain Kuukausittain Vuosittain Mukautettu
  Korkea: Matala: Keskiarvo:
Lämpötila: -17.8 °C -17.1 °C -15.3 °C
Kastepiste: -17.8 °C -17.4 °C -15.9 °C
Kosteus: Humidity % 88 % 92 %
Tuulen nopeus: 0 km/h 0 km/h 8.4 km/h
Tuulenpuuska: 0 km/h - -
Tuuli:- - SSW
Ilmanpaine: 0 hPa 33294.5 hPa -
Sade: 0 mm    
Historical Graphs
 
 
Taulukkotiedot Huhtikuu 10, 2017
Aika Lämpötila Kastepiste Ilmanpaine Tuuli Tuulen nopeus Tuulenpuuska Kosteus Sademäärä (tunneittain)
-17.8 °C -17.8 °C 0 hPa Calm     Humidity % 0 mm
00:00 -15 °C -16 °C 33981.9 hPa SSW 10.3 km/h 23.3 km/h 88 % 0 mm
00:15 -15.1 °C -16.1 °C 33981.9 hPa SSW 7.7 km/h 20.8 km/h 88 % 0 mm
00:30 -15.2 °C -16.1 °C 33971.7 hPa SSW 10.3 km/h 20.8 km/h 89 % 0 mm
00:45 -15.3 °C -16.2 °C 33971.7 hPa SSW 5.1 km/h 20.8 km/h 89 % 0 mm
01:00 -15.4 °C -16.3 °C 33971.7 hPa SSW 2.6 km/h 12.9 km/h 89 % 0 mm
01:15 -15.4 °C -16.3 °C 33958.2 hPa SSW 2.6 km/h 10.3 km/h 89 % 0 mm
01:30 -15.6 °C -16.4 °C 33958.2 hPa Calm   7.7 km/h 90 % 0 mm
01:45 -15.6 °C -16.4 °C 33948 hPa SSW 5.1 km/h 15.6 km/h 90 % 0 mm
02:00 -15.7 °C -16.4 °C 33937.9 hPa Calm   12.9 km/h 91 % 0 mm
02:15 -15.6 °C -16.3 °C 33937.9 hPa SSW 7.7 km/h 15.6 km/h 91 % 0 mm
02:30 -15.5 °C -16.3 °C 33924.3 hPa SSW 5.1 km/h 15.6 km/h 90 % 0 mm
02:45 -15.5 °C -16.3 °C 33914.2 hPa SSW 5.1 km/h 12.9 km/h 90 % 0 mm
03:00 -15.6 °C -16.4 °C 33900.6 hPa SSW 5.1 km/h 15.6 km/h 90 % 0 mm
03:15 -15.5 °C -16.3 °C 33890.5 hPa SSW 5.1 km/h 12.9 km/h 90 % 0 mm
03:30 -15.4 °C -16.3 °C 33890.5 hPa SW 5.1 km/h 15.6 km/h 89 % 0 mm
03:45 -15.4 °C -16.4 °C 33880.3 hPa SW 2.6 km/h 10.3 km/h 89 % 0 mm
04:00 -15.5 °C -16.4 °C 33866.8 hPa Calm   7.7 km/h 89 % 0 mm
04:15 -15.6 °C -16.4 °C 33856.6 hPa SW 2.6 km/h 10.3 km/h 90 % 0 mm
04:30 -15.7 °C -16.6 °C 33856.6 hPa SW 2.6 km/h 10.3 km/h 90 % 0 mm
04:45 -15.8 °C -16.6 °C 33843.1 hPa Calm   10.3 km/h 90 % 0 mm
05:00 -15.9 °C -16.8 °C 33832.9 hPa Calm   10.3 km/h 90 % 0 mm
05:15 -16 °C -16.7 °C 33832.9 hPa Calm   5.1 km/h 91 % 0 mm
05:30 -16.1 °C -16.8 °C 33822.8 hPa Calm   10.3 km/h 91 % 0 mm
05:45 -16.2 °C -16.9 °C 33809.2 hPa Calm   2.6 km/h 91 % 0 mm
06:00 -16.3 °C -17.1 °C 33809.2 hPa Calm   5.1 km/h 91 % 0 mm
06:15 -16.4 °C -17.1 °C 33788.9 hPa Calm   10.3 km/h 91 % 0 mm
06:30 -16.4 °C -17.2 °C 33788.9 hPa Calm   2.6 km/h 91 % 0 mm
06:45 -16.4 °C -17.1 °C 33775.4 hPa Calm   10.3 km/h 92 % 0 mm
07:00 -16.4 °C -17.1 °C 33765.2 hPa Calm   10.3 km/h 92 % 0 mm
07:15 -16.3 °C -17 °C 33751.6 hPa Calm   12.9 km/h 92 % 0 mm
07:30 -16.2 °C -16.9 °C 33741.5 hPa Calm   10.3 km/h 92 % 0 mm
07:45 -16.2 °C -16.8 °C 33741.5 hPa Calm   10.3 km/h 92 % 0 mm
08:00 -15.7 °C -16.4 °C 33731.3 hPa SSW 5.1 km/h 18.2 km/h 92 % 0 mm
08:15 -15.3 °C -16.2 °C 33731.3 hPa SSW 10.3 km/h 20.8 km/h 90 % 0 mm
08:30 -15.2 °C -16.1 °C 33717.8 hPa SSW 7.7 km/h 20.8 km/h 89 % 0 mm
08:45 -15.2 °C -16.1 °C 33707.6 hPa SSW 7.7 km/h 18.2 km/h 89 % 0 mm
09:00 -15.1 °C -16.1 °C 33694.1 hPa SSW 5.1 km/h 20.8 km/h 89 % 0 mm
09:15 -15.1 °C -15.9 °C 33694.1 hPa South 7.7 km/h 23.3 km/h 90 % 0 mm
09:30 -15.1 °C -15.9 °C 33683.9 hPa SSW 15.6 km/h 28.5 km/h 90 % 0 mm
09:45 -15.1 °C -15.9 °C 33683.9 hPa South 10.3 km/h 31.1 km/h 90 % 0 mm
10:00 -15 °C -15.7 °C 33673.8 hPa SSW 10.3 km/h 28.5 km/h 91 % 0 mm
10:15 -14.9 °C -15.6 °C 33673.8 hPa SSW 12.9 km/h 28.5 km/h 92 % 0 mm
10:30 -14.9 °C -15.6 °C 33650.1 hPa SSW 10.3 km/h 28.5 km/h 92 % 0 mm
10:45 -14.8 °C -15.4 °C 33650.1 hPa South 12.9 km/h 28.5 km/h 93 % 0 mm
11:00 -14.7 °C -15.3 °C 33639.9 hPa SSW 15.6 km/h 41.4 km/h 93 % 0 mm
11:15 -14.6 °C -15.2 °C 33626.4 hPa SSW 12.9 km/h 28.5 km/h 93 % 0 mm
11:30 -14.6 °C -15.2 °C 33616.2 hPa SSW 12.9 km/h 25.9 km/h 93 % 0 mm
11:45 -14.6 °C -15.1 °C 33602.7 hPa SSW 10.3 km/h 31.1 km/h 93 % 0 mm
12:00 -14.5 °C -15.1 °C 33592.5 hPa SSW 12.9 km/h 33.6 km/h 93 % 0 mm
12:15 -14.5 °C -14.9 °C 33582.3 hPa SSW 7.7 km/h 28.5 km/h 94 % 0 mm
12:30 -14.5 °C -14.9 °C 33568.8 hPa South 7.7 km/h 23.3 km/h 95 % 0 mm
12:45 -14.4 °C -14.8 °C 33545.1 hPa South 5.1 km/h 25.9 km/h 95 % 0 mm
13:00 -14.4 °C -14.8 °C 33534.9 hPa South 5.1 km/h 20.8 km/h 95 % 0 mm
13:15 -14.4 °C -14.7 °C 33545.1 hPa SSW 10.3 km/h 23.3 km/h 96 % 0 mm
13:30 -14.3 °C -14.7 °C 33545.1 hPa SSW 12.9 km/h 25.9 km/h 96 % 0 mm
13:45 -14.3 °C -14.7 °C 33501.1 hPa SSW 15.6 km/h 38.8 km/h 95 % 0 mm
14:00 -14.2 °C -14.7 °C 33477.4 hPa South 10.3 km/h 23.3 km/h 95 % 0 mm
14:15 -14.2 °C -14.6 °C 33477.4 hPa SSW 10.3 km/h 23.3 km/h 95 % 0 mm
14:30 -14.2 °C -14.6 °C 33453.7 hPa South 7.7 km/h 31.1 km/h 95 % 0 mm
14:45 -14.2 °C -14.6 °C 33443.5 hPa South 10.3 km/h 25.9 km/h 95 % 0 mm
15:00 -14.1 °C -14.5 °C 33433.4 hPa SSW 10.3 km/h 28.5 km/h 95 % 0 mm
15:15 -14.1 °C -14.6 °C 33433.4 hPa SSW 15.6 km/h 49.2 km/h 95 % 0 mm
15:30 -14.2 °C -14.7 °C 33419.8 hPa SSW 18.2 km/h 33.6 km/h 94 % 0 mm
15:45 -14.2 °C -14.7 °C 33409.7 hPa SSW 15.6 km/h 38.8 km/h 94 % 0 mm
16:00 -14.3 °C -14.8 °C 33409.7 hPa SSW 15.6 km/h 44.1 km/h 94 % 0 mm
16:15 -14.3 °C -14.7 °C 33396.1 hPa SSW 18.2 km/h 41.4 km/h 95 % 0 mm
16:30 -14.3 °C -14.8 °C 33386 hPa SSW 18.2 km/h 38.8 km/h 95 % 0 mm
16:45 -14.4 °C -14.8 °C 33386 hPa SSW 18.2 km/h 33.6 km/h 95 % 0 mm
17:00 -14.6 °C -15.1 °C 33375.8 hPa SSW 18.2 km/h 33.6 km/h 94 % 0 mm
17:15 -14.8 °C -15.3 °C 33362.3 hPa SSW 18.2 km/h 44.1 km/h 94 % 0 mm
17:30 -14.8 °C -15.2 °C 33352.1 hPa SSW 12.9 km/h 31.1 km/h 94 % 0 mm
17:45 -14.7 °C -15.1 °C 33338.6 hPa SSW 15.6 km/h 33.6 km/h 95 % 0 mm
18:00 -14.6 °C -15.1 °C 33338.6 hPa SSW 12.9 km/h 25.9 km/h 95 % 0 mm
18:15 -14.7 °C -15.1 °C 33328.4 hPa SSW 18.2 km/h 36.2 km/h 95 % 0 mm
18:30 -14.7 °C -15.1 °C 33338.6 hPa SSW 18.2 km/h 46.7 km/h 95 % 0 mm
18:45 -14.8 °C -15.3 °C 33328.4 hPa SSW 12.9 km/h 36.2 km/h 95 % 0 mm
19:00 -15.1 °C -15.5 °C 33328.4 hPa SSW 15.6 km/h 44.1 km/h 95 % 0 mm
19:15 -15.2 °C -15.5 °C 33318.2 hPa SSW 12.9 km/h 25.9 km/h 96 % 0 mm
19:30 -15.2 °C -15.6 °C 33318.2 hPa SSW 10.3 km/h 25.9 km/h 96 % 0 mm
19:45 -15.3 °C -15.7 °C 33304.7 hPa SSW 15.6 km/h 36.2 km/h 96 % 0 mm
20:00 -15.4 °C -15.7 °C 33304.7 hPa SSW 15.6 km/h 36.2 km/h 96 % 0 mm
20:15 -15.4 °C -15.8 °C 33304.7 hPa SSW 10.3 km/h 31.1 km/h 96 % 0 mm
20:30 -15.5 °C -15.8 °C 33304.7 hPa SSW 10.3 km/h 28.5 km/h 96 % 0 mm
20:45 -15.6 °C -15.9 °C 33304.7 hPa SSW 10.3 km/h 25.9 km/h 96 % 0 mm
21:00 -15.7 °C -16.1 °C 33294.5 hPa SW 7.7 km/h 18.2 km/h 96 % 0 mm
21:15 -15.9 °C -16.2 °C 33294.5 hPa SSW 10.3 km/h 20.8 km/h 96 % 0 mm
21:30 -16.1 °C -16.5 °C 33294.5 hPa SW 5.1 km/h 20.8 km/h 95 % 0 mm
21:45 -16.2 °C -16.6 °C 33294.5 hPa SSW 7.7 km/h 18.2 km/h 95 % 0 mm
22:00 -16.3 °C -16.6 °C 33294.5 hPa SW 5.1 km/h 20.8 km/h 96 % 0 mm
22:15 -16.3 °C -16.7 °C 33294.5 hPa SW 7.7 km/h 18.2 km/h 96 % 0 mm
22:30 -16.3 °C -16.7 °C 33294.5 hPa SSW 5.1 km/h 20.8 km/h 96 % 0 mm
22:45 -16.4 °C -16.7 °C 33294.5 hPa SW 7.7 km/h 20.8 km/h 96 % 0 mm
23:00 -16.5 °C -16.8 °C 33294.5 hPa SW 7.7 km/h 20.8 km/h 96 % 0 mm
23:15 -16.7 °C -17.1 °C 33304.7 hPa SW 7.7 km/h 23.3 km/h 95 % 0 mm
23:30 -16.9 °C -17.3 °C 33304.7 hPa WSW 5.1 km/h 20.8 km/h 95 % 0 mm
23:45 -17.1 °C -17.4 °C 33304.7 hPa SW 2.6 km/h 10.3 km/h 95 % 0 mm
Esan sääasema
Terveisin Weather Underground - 2.75 mb

Alkuperäinen skripti  Jim McMurry - jmcmurry@mwt.net Sovitettu myös templatelle  Wim van der Kuil - Leuven-Template.eu

Laitteet joita käytämme:

Sääasema
Davis VP2

Sääasemaohjelma
Cumulus

Sääaseman tietokone
Asus EeePC

Palveluntarjoaja
Suncomet

Davis VP2

Cumulus

Asus EeePC

Suncomet